createdAt,value
2022-08-28T00:00:42.552Z,101147.53
2022-08-28T00:03:12.384Z,101147.56
2022-08-28T00:05:41.560Z,101129.88
2022-08-28T00:08:11.259Z,101134.34
2022-08-28T00:10:40.471Z,101127.28
2022-08-28T00:13:09.300Z,101142.34
2022-08-28T00:15:39.389Z,101099.91
2022-08-28T00:18:08.773Z,101139.69
2022-08-28T00:20:37.172Z,101144.94
2022-08-28T00:23:06.013Z,101154.72
2022-08-28T00:25:35.392Z,101146.72
2022-08-28T00:28:08.839Z,101148.50
2022-08-28T00:30:41.124Z,101159.16
2022-08-28T00:33:12.755Z,101158.28
2022-08-28T00:35:41.832Z,101158.31
2022-08-28T00:38:10.776Z,101162.75
2022-08-28T00:40:40.194Z,101157.41
2022-08-28T00:43:09.846Z,101140.66
2022-08-28T00:45:40.429Z,101135.34
2022-08-28T00:48:09.378Z,101153.91
2022-08-28T00:50:51.581Z,101157.47
2022-08-28T00:53:20.786Z,101153.94
2022-08-28T00:55:51.613Z,101161.94
2022-08-28T00:58:20.467Z,101138.06
2022-08-28T01:00:50.049Z,101165.50
2022-08-28T01:03:18.191Z,101169.94
2022-08-28T01:05:48.200Z,101177.94
2022-08-28T01:08:16.625Z,101151.41
2022-08-28T01:10:50.884Z,101166.44
2022-08-28T01:13:19.476Z,101172.66
2022-08-28T01:15:49.440Z,101176.22
2022-08-28T01:18:18.939Z,101173.56
2022-08-28T01:20:56.901Z,101128.44
2022-08-28T01:23:35.714Z,101183.34
2022-08-28T01:26:06.491Z,101171.84
2022-08-28T01:28:39.530Z,101177.19
2022-08-28T01:31:10.099Z,101171.84
2022-08-28T01:33:42.287Z,101114.31
2022-08-28T01:36:12.443Z,101175.41
2022-08-28T01:38:41.133Z,101169.22
2022-08-28T01:41:12.125Z,101155.03
2022-08-28T01:43:41.445Z,101170.97
2022-08-28T01:46:11.713Z,101171.88
2022-08-28T01:48:42.883Z,101171.00
2022-08-28T01:51:12.141Z,101176.31
2022-08-28T01:53:41.530Z,101165.66
2022-08-28T01:56:18.199Z,101160.38
2022-08-28T08:23:07.507Z,101254.09
2022-08-28T08:25:35.490Z,101256.72
2022-08-28T08:28:03.993Z,101254.94
2022-08-28T08:30:32.014Z,101262.88
2022-08-28T08:32:59.926Z,101266.41
2022-08-28T08:35:27.961Z,101274.41
2022-08-28T08:37:57.823Z,101278.84
2022-08-28T08:40:29.263Z,101265.53
2022-08-28T08:42:58.193Z,101282.38
2022-08-28T08:45:26.855Z,101280.56
2022-08-28T08:47:57.171Z,101260.13
2022-08-28T08:50:28.485Z,101268.06
2022-08-28T08:53:19.992Z,101268.94
2022-08-28T08:55:52.325Z,101266.28
2022-08-28T08:58:25.830Z,101254.81
2022-08-28T09:01:01.290Z,101267.19
2022-08-28T09:03:45.546Z,101266.38
2022-08-28T09:06:27.035Z,101262.00
2022-08-28T09:09:00.389Z,101262.06
2022-08-28T09:11:44.430Z,101270.03
2022-08-28T09:14:20.713Z,101270.97
2022-08-28T09:16:56.972Z,101273.63
2022-08-28T09:19:24.989Z,101272.72
2022-08-28T09:21:53.558Z,101260.34
2022-08-28T09:24:25.441Z,101255.94
2022-08-28T09:26:58.491Z,101273.66
2022-08-28T09:29:30.909Z,101263.03
2022-08-28T09:31:59.167Z,101240.03
2022-08-28T09:34:35.491Z,101260.38
2022-08-28T09:37:09.710Z,101263.94
2022-08-28T09:39:44.585Z,101263.06
2022-08-28T09:42:41.088Z,101268.44
2022-08-28T09:45:21.445Z,101267.56
2022-08-28T09:47:51.861Z,101268.47
2022-08-28T09:50:29.820Z,101275.59
2022-08-28T09:53:00.832Z,101273.84
2022-08-28T09:55:38.739Z,101278.28
2022-08-28T09:58:09.330Z,101280.03
2022-08-28T10:00:44.563Z,101267.63
2022-08-28T10:03:19.147Z,101285.38
2022-08-28T10:05:59.050Z,101290.69
2022-08-28T10:08:41.410Z,101267.66
2022-08-28T10:11:18.370Z,101243.75
2022-08-28T10:13:58.341Z,101298.69
2022-08-28T10:16:35.520Z,101300.44
2022-08-28T10:19:10.298Z,101297.78
2022-08-28T10:21:46.424Z,101306.66
2022-08-28T10:24:32.454Z,101309.31
2022-08-28T10:27:09.486Z,101291.59
2022-08-28T10:29:50.532Z,101304.00
2022-08-28T10:33:05.887Z,101319.06
2022-08-28T10:35:45.076Z,101317.28
2022-08-28T10:38:17.456Z,101314.63
2022-08-28T10:40:54.650Z,101312.84
2022-08-28T10:43:30.997Z,101316.41
2022-08-28T10:46:04.842Z,101320.81
2022-08-28T10:48:39.769Z,101317.28
2022-08-28T10:51:13.040Z,101312.84
2022-08-28T10:53:45.594Z,101311.97
2022-08-28T10:56:17.532Z,101317.28
2022-08-28T10:58:49.493Z,101311.97
2022-08-28T11:01:27.225Z,101323.47
2022-08-28T11:03:58.405Z,101334.09
2022-08-28T11:06:32.715Z,101318.16
2022-08-28T11:09:24.632Z,101337.66
2022-08-28T11:12:01.089Z,101314.59
2022-08-28T11:14:47.628Z,101335.88
2022-08-28T11:20:16.890Z,101333.19
2022-08-28T11:22:48.800Z,101348.25
2022-08-28T11:25:26.591Z,101355.34
2022-08-28T11:28:18.882Z,101365.06
2022-08-28T11:30:48.281Z,101362.41
2022-08-28T11:33:36.475Z,101372.13
2022-08-28T11:36:10.464Z,101383.63
2022-08-28T11:39:05.769Z,101383.63
2022-08-28T11:41:36.783Z,101385.38
2022-08-28T11:44:40.234Z,101394.19
2022-08-28T11:47:45.804Z,101402.13
2022-08-28T11:50:18.542Z,101397.69
2022-08-28T11:53:11.566Z,101406.50
2022-08-28T11:55:57.402Z,101404.72
2022-08-28T11:58:35.595Z,101386.06
2022-08-28T12:01:07.508Z,101416.22
2022-08-28T12:03:38.604Z,101414.44
2022-08-28T12:06:08.540Z,101408.19
2022-08-28T12:09:11.806Z,101422.38
2022-08-28T12:11:54.852Z,101394.88
2022-08-28T12:15:02.284Z,101421.47
2022-08-28T12:17:44.477Z,101424.09
2022-08-28T12:20:19.638Z,101430.31
2022-08-28T12:22:52.967Z,101425.88
2022-08-28T12:25:31.550Z,101429.41
2022-08-28T12:28:04.426Z,101434.69
2022-08-28T12:30:36.433Z,101428.47
2022-08-28T12:33:15.129Z,101421.38
2022-08-28T12:35:44.004Z,101421.34
2022-08-28T12:38:20.132Z,101370.72
2022-08-28T12:40:54.965Z,101435.50
2022-08-28T12:43:34.006Z,101438.13
2022-08-28T12:46:07.051Z,101428.28
2022-08-28T12:48:51.785Z,101441.50
2022-08-28T12:51:22.726Z,101455.59
2022-08-28T12:53:52.352Z,101390.63
2022-08-28T12:56:23.789Z,101442.09
2022-08-28T12:58:52.681Z,101429.63
2022-08-28T13:01:29.344Z,101408.22
2022-08-28T13:04:00.001Z,101416.19
2022-08-28T13:06:30.671Z,101402.81
2022-08-28T13:09:01.706Z,101391.22
2022-08-28T13:11:34.722Z,101391.06
2022-08-28T13:14:04.373Z,101380.31
2022-08-28T13:16:38.937Z,101374.00
2022-08-28T13:19:26.010Z,101373.06
2022-08-28T13:22:00.461Z,101387.09
2022-08-28T13:24:45.717Z,101389.72
2022-08-28T13:27:25.424Z,101395.88
2022-08-28T13:30:00.799Z,101391.31
2022-08-28T13:32:31.492Z,101392.94
2022-08-28T13:35:33.100Z,101382.31
2022-08-28T13:38:03.986Z,101342.28
2022-08-28T13:43:31.854Z,101390.06
2022-08-28T13:45:59.924Z,101391.75
2022-08-28T13:48:28.837Z,101396.97
2022-08-28T13:51:00.163Z,101400.41
2022-08-28T13:53:28.344Z,101389.72
2022-08-28T13:55:58.444Z,101396.69
2022-08-28T13:58:26.513Z,101376.16
2022-08-28T14:00:56.215Z,101379.69
2022-08-28T14:03:36.003Z,101380.50
2022-08-28T14:06:05.164Z,101384.78
2022-08-28T14:08:33.237Z,101360.50
2022-08-28T14:11:01.441Z,101388.63
2022-08-28T14:13:29.653Z,101384.91
2022-08-28T14:15:59.203Z,101375.13
2022-08-28T14:18:28.203Z,101401.66
2022-08-28T14:20:56.438Z,101403.25
2022-08-28T14:23:24.479Z,101403.09
2022-08-28T14:25:52.605Z,101401.09
2022-08-28T14:28:20.634Z,101401.91
2022-08-28T14:30:50.287Z,101395.56
2022-08-28T14:33:20.826Z,101391.88
2022-08-28T14:35:49.955Z,101405.16
2022-08-28T14:38:18.099Z,101406.88
2022-08-28T14:40:46.552Z,101420.00
2022-08-28T14:43:15.432Z,101426.03
2022-08-28T14:45:45.054Z,101416.16
2022-08-28T14:48:14.793Z,101431.34
2022-08-28T14:50:45.913Z,101418.03
2022-08-28T14:53:15.101Z,101434.91
2022-08-28T14:55:45.199Z,101442.84
2022-08-28T14:58:13.712Z,101444.59
2022-08-28T15:00:42.442Z,101451.56
2022-08-28T15:03:11.285Z,101450.44
2022-08-28T15:05:39.590Z,101462.09
2022-08-28T15:08:09.858Z,101448.91
2022-08-28T15:10:38.960Z,101465.63
2022-08-28T15:13:11.704Z,101454.09
2022-08-28T15:15:42.650Z,101460.22
2022-08-28T15:18:11.688Z,101448.75
2022-08-28T15:20:41.065Z,101447.84
2022-08-28T15:23:11.086Z,101444.97
2022-08-28T15:25:39.200Z,101445.59
2022-08-28T15:28:07.869Z,101450.84
2022-08-28T15:30:36.932Z,101442.94
2022-08-28T15:33:05.336Z,101446.47
2022-08-28T15:35:34.265Z,101447.28
2022-08-28T15:38:02.472Z,101446.28
2022-08-28T15:40:50.037Z,101449.81
2022-08-28T15:43:19.035Z,101454.28
2022-08-28T15:45:47.567Z,101449.97
2022-08-28T15:48:15.645Z,101443.66
2022-08-28T15:50:43.958Z,101456.13
2022-08-28T15:53:11.902Z,101455.19
2022-08-28T15:55:41.685Z,101429.25
2022-08-28T15:58:13.844Z,101473.63
2022-08-28T16:00:43.185Z,101469.22
2022-08-28T16:03:11.162Z,101462.09
2022-08-28T16:05:40.849Z,101474.44
2022-08-28T16:08:10.392Z,101466.44
2022-08-28T16:10:38.337Z,101468.84
2022-08-28T16:13:07.855Z,101476.00
2022-08-28T16:15:36.240Z,101466.13
2022-08-28T16:18:09.069Z,101476.88
2022-08-28T16:20:37.807Z,101476.00
2022-08-28T16:23:05.825Z,101465.28
2022-08-28T16:25:34.634Z,101467.91
2022-08-28T16:28:02.773Z,101482.97
2022-08-28T16:30:32.547Z,101480.31
2022-08-28T16:33:04.271Z,101482.06
2022-08-28T16:35:32.589Z,101482.97
2022-08-28T16:38:05.420Z,101439.09
2022-08-28T16:40:33.539Z,101489.88
2022-08-28T16:43:01.817Z,101484.38
2022-08-28T16:45:31.530Z,101483.47
2022-08-28T16:48:00.147Z,101496.75
2022-08-28T16:50:31.729Z,101492.25
2022-08-28T16:53:04.817Z,101496.47
2022-08-28T16:55:34.922Z,101496.31
2022-08-28T16:58:02.990Z,101501.59
2022-08-28T17:00:33.347Z,101449.78
2022-08-28T17:03:01.887Z,101491.63
2022-08-28T17:05:30.041Z,101501.22
2022-08-28T17:07:58.976Z,101503.91
2022-08-28T17:10:27.694Z,101504.63
2022-08-28T17:12:56.885Z,101511.56
2022-08-28T17:15:24.866Z,101487.50
2022-08-28T17:17:54.109Z,101507.84
2022-08-28T17:20:39.886Z,101501.47
2022-08-28T17:23:07.887Z,101507.66
2022-08-28T17:25:36.025Z,101506.75
2022-08-28T17:28:04.794Z,101510.88
2022-08-28T17:30:32.703Z,101509.00
2022-08-28T17:33:02.170Z,101515.13
2022-08-28T17:35:30.190Z,101507.84
2022-08-28T17:37:58.137Z,101524.47
2022-08-28T17:40:26.206Z,101511.03
2022-08-28T17:42:54.573Z,101532.09
2022-08-28T17:45:22.453Z,101531.16
2022-08-28T17:47:50.955Z,101536.38
2022-08-28T17:50:20.529Z,101497.91
2022-08-28T17:52:48.964Z,101534.59
2022-08-28T17:55:18.488Z,101529.13
2022-08-28T17:57:46.436Z,101548.50
2022-08-28T18:00:16.356Z,101553.69
2022-08-28T18:02:44.639Z,101549.25
2022-08-28T18:05:14.618Z,101412.78
2022-08-28T18:07:43.984Z,101559.03
2022-08-28T18:10:12.243Z,101566.09
2022-08-28T18:12:40.749Z,101564.34
2022-08-28T18:15:10.955Z,101559.00
2022-08-28T18:17:40.104Z,101556.25
2022-08-28T18:20:11.253Z,101557.97
2022-08-28T18:22:39.917Z,101565.75
2022-08-28T18:25:30.511Z,101562.25
2022-08-28T18:27:58.614Z,101560.53
2022-08-28T18:30:27.143Z,101565.81
2022-08-28T18:32:58.390Z,101564.81
2022-08-28T18:35:31.709Z,101559.38
2022-08-28T18:38:01.538Z,101557.63
2022-08-28T18:40:31.735Z,101563.69
2022-08-28T18:43:00.278Z,101560.22
2022-08-28T18:45:28.927Z,101540.56
2022-08-28T18:47:56.969Z,101565.63
2022-08-28T18:50:26.209Z,101563.88
2022-08-28T18:52:55.372Z,101564.81
2022-08-28T18:55:26.008Z,101539.03
2022-08-28T18:57:55.478Z,101564.97
2022-08-28T19:00:25.619Z,101568.50
2022-08-28T19:02:55.225Z,101566.84
2022-08-28T19:05:23.739Z,101545.47
2022-08-28T19:07:51.917Z,101566.00
2022-08-28T19:10:32.869Z,101510.75
2022-08-28T19:13:03.585Z,101560.72
2022-08-28T19:15:32.346Z,101557.19
2022-08-28T19:18:01.498Z,101559.88
2022-08-28T19:20:30.894Z,101541.13
2022-08-28T19:23:00.059Z,101567.88
2022-08-28T19:25:31.704Z,101567.94
2022-08-28T19:28:01.446Z,101555.47
2022-08-28T19:30:33.404Z,101565.34
2022-08-28T19:33:02.256Z,101562.84
2022-08-28T19:35:30.518Z,101562.00
2022-08-28T19:37:58.625Z,101564.66
2022-08-28T19:40:27.482Z,101563.78
2022-08-28T19:42:55.763Z,101565.56
2022-08-28T19:45:24.061Z,101565.59
2022-08-28T19:47:53.688Z,101520.97
2022-08-28T19:50:21.849Z,101579.72
2022-08-28T19:52:49.793Z,101573.56
2022-08-28T19:55:21.129Z,101577.94
2022-08-28T19:57:49.393Z,101579.75
2022-08-28T20:00:19.370Z,101570.13
2022-08-28T20:02:48.331Z,101576.31
2022-08-28T20:05:17.883Z,101570.19
2022-08-28T20:07:46.536Z,101570.25
2022-08-28T20:10:16.322Z,101579.03
2022-08-28T20:12:48.108Z,101529.03
2022-08-28T20:15:18.146Z,101567.66
2022-08-28T20:17:49.614Z,101573.84
2022-08-28T20:20:21.239Z,101565.09
2022-08-28T20:22:54.150Z,101537.50
2022-08-28T20:25:22.911Z,101527.53
2022-08-28T20:27:50.969Z,101562.59
2022-08-28T20:30:19.409Z,101550.88
2022-08-28T20:32:47.663Z,101570.63
2022-08-28T20:35:16.242Z,101573.31
2022-08-28T20:37:49.489Z,101576.00
2022-08-28T20:40:21.942Z,101583.03
2022-08-28T20:42:50.204Z,101542.06
2022-08-28T20:45:20.371Z,101573.13
2022-08-28T20:47:48.566Z,101582.97
2022-08-28T20:50:16.957Z,101575.69
2022-08-28T20:52:46.299Z,101531.16
2022-08-28T20:55:15.004Z,101583.00
2022-08-28T20:57:43.179Z,101567.16
2022-08-28T21:00:12.860Z,101577.78
2022-08-28T21:02:40.859Z,101541.06
2022-08-28T21:05:09.534Z,101572.41
2022-08-28T21:07:37.888Z,101571.56
2022-08-28T21:10:08.234Z,101516.28
2022-08-28T21:12:37.862Z,101566.22
2022-08-28T21:15:07.377Z,101571.50
2022-08-28T21:17:35.460Z,101552.16
2022-08-28T21:20:11.392Z,101554.75
2022-08-28T21:22:40.261Z,101544.94
2022-08-28T21:25:12.409Z,101558.31
2022-08-28T21:27:40.853Z,101552.16
2022-08-28T21:30:10.742Z,101560.06
2022-08-28T21:32:38.925Z,101560.94
2022-08-28T21:35:09.421Z,101561.88
2022-08-28T21:37:39.964Z,101567.03
2022-08-28T21:40:12.930Z,101574.97
2022-08-28T21:42:41.161Z,101564.13
2022-08-28T21:45:12.206Z,101562.69
2022-08-28T21:47:40.913Z,101564.44
2022-08-28T21:50:10.899Z,101557.44
2022-08-28T21:52:38.993Z,101554.75
2022-08-28T21:55:11.617Z,101545.81
2022-08-28T21:57:39.994Z,101503.09
2022-08-28T22:00:11.262Z,101553.09
2022-08-28T22:02:39.375Z,101547.88
2022-08-28T22:05:07.590Z,101549.66
2022-08-28T22:07:35.552Z,101554.03
2022-08-28T22:10:03.612Z,101547.00
2022-08-28T22:12:33.099Z,101517.53
2022-08-28T22:15:01.604Z,101534.63
2022-08-28T22:17:29.761Z,101534.75
2022-08-28T22:19:57.746Z,101536.44
2022-08-28T22:22:43.549Z,101528.53
2022-08-28T22:25:11.540Z,101518.88
2022-08-28T22:27:40.907Z,101517.06
2022-08-28T22:30:10.205Z,101513.41
2022-08-28T22:32:38.200Z,101527.56
2022-08-28T22:35:07.139Z,101519.53
2022-08-28T22:37:36.317Z,101539.78
2022-08-28T22:40:13.117Z,101531.88
2022-08-28T22:42:43.390Z,101542.44
2022-08-28T22:45:11.768Z,101546.81
2022-08-28T22:47:39.755Z,101540.56
2022-08-28T22:50:09.440Z,101559.16
2022-08-28T22:52:37.704Z,101545.88
2022-08-28T22:55:09.592Z,101547.75
2022-08-28T22:57:42.228Z,101551.22
2022-08-28T23:00:12.880Z,101542.28
2022-08-28T23:02:42.054Z,101547.69
2022-08-28T23:05:10.356Z,101547.59
2022-08-28T23:07:38.492Z,101542.44
2022-08-28T23:10:07.552Z,101548.59
2022-08-28T23:12:36.025Z,101538.78
2022-08-28T23:15:08.418Z,101550.31
2022-08-28T23:17:36.876Z,101552.97
2022-08-28T23:20:07.448Z,101553.84
2022-08-28T23:22:38.454Z,101546.88
2022-08-28T23:25:07.661Z,101544.25
2022-08-28T23:27:36.729Z,101540.72
2022-08-28T23:30:08.168Z,101538.97
2022-08-28T23:32:36.114Z,101528.41
2022-08-28T23:35:06.489Z,101534.53
2022-08-28T23:37:35.930Z,101525.78
2022-08-28T23:40:05.070Z,101524.88
2022-08-28T23:42:33.252Z,101525.72
2022-08-28T23:45:01.333Z,101523.09
2022-08-28T23:47:30.763Z,101524.94
2022-08-28T23:49:59.134Z,101521.41
2022-08-28T23:52:27.206Z,101524.06
2022-08-28T23:54:55.359Z,101523.13
2022-08-28T23:57:23.270Z,101504.38
2022-08-28T23:59:51.926Z,101534.53
